sensor_id;sensor_type;location;lat;lon;timestamp;pressure;altitude;pressure_sealevel;temperature;humidity
33161;BME280;19522;45.656;11.302;2023-03-31T00:00:11;98506.94;;;10.89;79.02
33161;BME280;19522;45.656;11.302;2023-03-31T00:02:37;98496.47;;;10.86;79.09
33161;BME280;19522;45.656;11.302;2023-03-31T00:05:07;98483.94;;;10.70;79.66
33161;BME280;19522;45.656;11.302;2023-03-31T00:07:33;98445.72;;;10.41;79.98
33161;BME280;19522;45.656;11.302;2023-03-31T00:10:03;98495.91;;;10.75;79.37
33161;BME280;19522;45.656;11.302;2023-03-31T00:12:29;98469.88;;;10.66;79.04
33161;BME280;19522;45.656;11.302;2023-03-31T00:14:55;98487.56;;;10.77;79.14
33161;BME280;19522;45.656;11.302;2023-03-31T00:17:20;98466.78;;;10.39;80.00
33161;BME280;19522;45.656;11.302;2023-03-31T00:19:46;98493.75;;;10.56;80.67
33161;BME280;19522;45.656;11.302;2023-03-31T00:22:15;98482.50;;;10.74;80.06
33161;BME280;19522;45.656;11.302;2023-03-31T00:24:43;98484.38;;;10.73;80.03
33161;BME280;19522;45.656;11.302;2023-03-31T00:27:09;98472.19;;;10.84;79.46
33161;BME280;19522;45.656;11.302;2023-03-31T00:29:36;98448.69;;;10.17;82.40
33161;BME280;19522;45.656;11.302;2023-03-31T00:32:05;98463.66;;;10.27;82.68
33161;BME280;19522;45.656;11.302;2023-03-31T00:34:31;98457.91;;;10.46;81.48
33161;BME280;19522;45.656;11.302;2023-03-31T00:36:56;98453.31;;;10.46;81.46
33161;BME280;19522;45.656;11.302;2023-03-31T00:39:28;98455.53;;;10.57;80.98
33161;BME280;19522;45.656;11.302;2023-03-31T00:41:57;98440.94;;;10.43;80.96
33161;BME280;19522;45.656;11.302;2023-03-31T00:44:23;98448.63;;;10.55;80.49
33161;BME280;19522;45.656;11.302;2023-03-31T00:47:03;98449.84;;;10.67;80.14
33161;BME280;19522;45.656;11.302;2023-03-31T00:49:41;98426.03;;;10.54;79.77
33161;BME280;19522;45.656;11.302;2023-03-31T00:52:16;98439.59;;;10.69;80.04
33161;BME280;19522;45.656;11.302;2023-03-31T00:54:46;98432.31;;;10.70;80.05
33161;BME280;19522;45.656;11.302;2023-03-31T00:57:14;98425.84;;;10.71;79.70
33161;BME280;19522;45.656;11.302;2023-03-31T00:59:45;98427.06;;;10.68;80.08
33161;BME280;19522;45.656;11.302;2023-03-31T01:02:13;98422.47;;;10.69;80.16
33161;BME280;19522;45.656;11.302;2023-03-31T01:04:44;98393.84;;;10.66;79.35
33161;BME280;19522;45.656;11.302;2023-03-31T01:07:20;98406.28;;;10.75;79.39
33161;BME280;19522;45.656;11.302;2023-03-31T01:09:47;98387.47;;;10.59;79.43
33161;BME280;19522;45.656;11.302;2023-03-31T01:12:16;98403.84;;;10.66;79.33
33161;BME280;19522;45.656;11.302;2023-03-31T01:14:42;98338.25;;;10.17;80.51
33161;BME280;19522;45.656;11.302;2023-03-31T01:17:07;98394.50;;;10.53;80.17
33161;BME280;19522;45.656;11.302;2023-03-31T01:19:49;98385.72;;;10.51;80.18
33161;BME280;19522;45.656;11.302;2023-03-31T01:27:51;98390.03;;;10.46;80.25
33161;BME280;19522;45.656;11.302;2023-03-31T01:41:58;98393.56;;;10.46;80.79
33161;BME280;19522;45.656;11.302;2023-03-31T01:44:40;98384.69;;;10.37;81.66
33161;BME280;19522;45.656;11.302;2023-03-31T01:50:14;98386.09;;;10.48;80.68
33161;BME280;19522;45.656;11.302;2023-03-31T01:52:54;98381.31;;;10.50;80.56
33161;BME280;19522;45.656;11.302;2023-03-31T01:55:24;98378.50;;;10.43;80.99
33161;BME280;19522;45.656;11.302;2023-03-31T01:58:02;98383.09;;;10.43;81.16
33161;BME280;19522;45.656;11.302;2023-03-31T02:00:33;98337.69;;;10.22;80.88
33161;BME280;19522;45.656;11.302;2023-03-31T02:03:05;98366.63;;;10.44;80.26
33161;BME280;19522;45.656;11.302;2023-03-31T02:05:42;98363.91;;;10.44;79.15
33161;BME280;19522;45.656;11.302;2023-03-31T02:08:13;98370.25;;;10.52;78.98
33161;BME280;19522;45.656;11.302;2023-03-31T02:10:41;98364.56;;;10.47;78.80
33161;BME280;19522;45.656;11.302;2023-03-31T02:13:09;98343.31;;;10.50;78.77
33161;BME280;19522;45.656;11.302;2023-03-31T02:15:40;98347.31;;;10.54;78.31
33161;BME280;19522;45.656;11.302;2023-03-31T02:18:10;98346.00;;;10.50;78.31
33161;BME280;19522;45.656;11.302;2023-03-31T02:20:41;98349.00;;;10.55;78.34
33161;BME280;19522;45.656;11.302;2023-03-31T02:23:09;98348.41;;;10.60;77.72
33161;BME280;19522;45.656;11.302;2023-03-31T02:25:47;98341.03;;;10.54;78.35
33161;BME280;19522;45.656;11.302;2023-03-31T02:28:20;98299.69;;;10.22;78.67
33161;BME280;19522;45.656;11.302;2023-03-31T02:33:36;98313.72;;;10.25;79.31
33161;BME280;19522;45.656;11.302;2023-03-31T02:36:01;98316.44;;;10.25;79.29
33161;BME280;19522;45.656;11.302;2023-03-31T02:38:30;98324.09;;;10.37;79.01
33161;BME280;19522;45.656;11.302;2023-03-31T02:40:58;98314.56;;;10.26;78.56
33161;BME280;19522;45.656;11.302;2023-03-31T02:43:23;98333.00;;;10.46;78.21
33161;BME280;19522;45.656;11.302;2023-03-31T02:45:50;98330.38;;;10.52;77.83
33161;BME280;19522;45.656;11.302;2023-03-31T02:48:23;98319.59;;;10.44;77.59
33161;BME280;19522;45.656;11.302;2023-03-31T02:56:58;98334.97;;;10.52;77.64
33161;BME280;19522;45.656;11.302;2023-03-31T03:10:06;98315.50;;;10.48;76.53
33161;BME280;19522;45.656;11.302;2023-03-31T03:15:28;98316.16;;;10.50;76.84
33161;BME280;19522;45.656;11.302;2023-03-31T03:17:52;98312.97;;;10.47;77.29
33161;BME280;19522;45.656;11.302;2023-03-31T03:20:20;98309.16;;;10.41;77.48
33161;BME280;19522;45.656;11.302;2023-03-31T03:22:46;98312.69;;;10.41;77.27
33161;BME280;19522;45.656;11.302;2023-03-31T03:25:13;98317.38;;;10.33;77.61
33161;BME280;19522;45.656;11.302;2023-03-31T03:27:39;98307.16;;;10.35;77.31
33161;BME280;19522;45.656;11.302;2023-03-31T03:30:07;98305.41;;;10.42;77.13
33161;BME280;19522;45.656;11.302;2023-03-31T03:32:34;98317.75;;;10.44;77.00
33161;BME280;19522;45.656;11.302;2023-03-31T03:35:00;98318.31;;;10.40;77.00
33161;BME280;19522;45.656;11.302;2023-03-31T03:37:28;98303.31;;;10.44;76.42
33161;BME280;19522;45.656;11.302;2023-03-31T03:39:54;98293.41;;;10.36;76.39
33161;BME280;19522;45.656;11.302;2023-03-31T03:42:19;98292.47;;;10.44;76.69
33161;BME280;19522;45.656;11.302;2023-03-31T03:44:45;98282.91;;;10.48;76.52
33161;BME280;19522;45.656;11.302;2023-03-31T03:47:11;98273.38;;;10.52;76.66
33161;BME280;19522;45.656;11.302;2023-03-31T03:49:37;98279.69;;;10.59;76.49
33161;BME280;19522;45.656;11.302;2023-03-31T03:52:03;98273.63;;;10.57;76.41
33161;BME280;19522;45.656;11.302;2023-03-31T03:54:28;98249.53;;;10.33;76.43
33161;BME280;19522;45.656;11.302;2023-03-31T03:56:54;98258.03;;;10.29;76.95
33161;BME280;19522;45.656;11.302;2023-03-31T03:59:20;98281.69;;;10.51;77.42
33161;BME280;19522;45.656;11.302;2023-03-31T04:01:45;98285.34;;;10.58;76.63
33161;BME280;19522;45.656;11.302;2023-03-31T04:04:11;98254.53;;;10.36;76.42
33161;BME280;19522;45.656;11.302;2023-03-31T04:06:37;98261.97;;;10.42;76.60
33161;BME280;19522;45.656;11.302;2023-03-31T04:09:02;98272.72;;;10.50;76.38
33161;BME280;19522;45.656;11.302;2023-03-31T04:11:40;98287.56;;;10.54;76.80
33161;BME280;19522;45.656;11.302;2023-03-31T04:14:06;98286.09;;;10.52;76.96
33161;BME280;19522;45.656;11.302;2023-03-31T04:16:32;98280.44;;;10.53;76.61
33161;BME280;19522;45.656;11.302;2023-03-31T04:18:59;98248.97;;;10.37;77.34
33161;BME280;19522;45.656;11.302;2023-03-31T04:21:28;98244.25;;;10.31;77.76
33161;BME280;19522;45.656;11.302;2023-03-31T04:23:55;98261.56;;;10.45;77.74
33161;BME280;19522;45.656;11.302;2023-03-31T04:26:28;98263.25;;;10.46;77.80
33161;BME280;19522;45.656;11.302;2023-03-31T04:29:06;98275.91;;;10.39;78.13
33161;BME280;19522;45.656;11.302;2023-03-31T04:31:32;98270.81;;;10.14;79.24
33161;BME280;19522;45.656;11.302;2023-03-31T04:33:58;98264.16;;;10.17;79.12
33161;BME280;19522;45.656;11.302;2023-03-31T04:36:27;98267.31;;;10.20;79.15
33161;BME280;19522;45.656;11.302;2023-03-31T04:38:53;98265.53;;;10.27;78.78
33161;BME280;19522;45.656;11.302;2023-03-31T04:41:23;98255.97;;;10.32;78.60
33161;BME280;19522;45.656;11.302;2023-03-31T04:43:49;98261.00;;;10.35;78.61
33161;BME280;19522;45.656;11.302;2023-03-31T04:46:15;98265.41;;;10.36;78.45
33161;BME280;19522;45.656;11.302;2023-03-31T04:48:41;98263.19;;;10.39;78.41
33161;BME280;19522;45.656;11.302;2023-03-31T04:51:07;98251.50;;;10.39;78.73
33161;BME280;19522;45.656;11.302;2023-03-31T04:53:34;98257.66;;;10.69;78.44
33161;BME280;19522;45.656;11.302;2023-03-31T04:55:59;98272.31;;;10.53;78.64
33161;BME280;19522;45.656;11.302;2023-03-31T04:58:25;98262.34;;;10.39;79.12
33161;BME280;19522;45.656;11.302;2023-03-31T05:00:51;98252.81;;;10.28;80.12
33161;BME280;19522;45.656;11.302;2023-03-31T05:03:17;98240.75;;;10.16;80.53
33161;BME280;19522;45.656;11.302;2023-03-31T05:05:42;98207.28;;;10.08;81.27
33161;BME280;19522;45.656;11.302;2023-03-31T05:08:08;98236.25;;;10.23;81.19
33161;BME280;19522;45.656;11.302;2023-03-31T05:10:33;98247.56;;;10.26;81.09
33161;BME280;19522;45.656;11.302;2023-03-31T05:12:59;98251.53;;;10.09;81.92
33161;BME280;19522;45.656;11.302;2023-03-31T05:15:24;98253.22;;;10.10;82.47
33161;BME280;19522;45.656;11.302;2023-03-31T05:17:50;98242.00;;;10.13;82.29
33161;BME280;19522;45.656;11.302;2023-03-31T05:20:17;98250.47;;;10.25;81.65
33161;BME280;19522;45.656;11.302;2023-03-31T05:22:44;98266.63;;;10.33;81.01
33161;BME280;19522;45.656;11.302;2023-03-31T05:25:11;98257.00;;;10.46;80.37
33161;BME280;19522;45.656;11.302;2023-03-31T05:27:44;98242.41;;;10.32;80.79
33161;BME280;19522;45.656;11.302;2023-03-31T05:30:12;98229.09;;;10.37;80.59
33161;BME280;19522;45.656;11.302;2023-03-31T05:32:38;98225.38;;;10.38;80.14
33161;BME280;19522;45.656;11.302;2023-03-31T05:35:04;98222.75;;;10.29;80.45
33161;BME280;19522;45.656;11.302;2023-03-31T05:37:30;98218.41;;;10.13;81.74
33161;BME280;19522;45.656;11.302;2023-03-31T05:39:55;98197.34;;;10.16;81.70
33161;BME280;19522;45.656;11.302;2023-03-31T05:42:21;98197.78;;;10.19;81.74
33161;BME280;19522;45.656;11.302;2023-03-31T05:44:47;98195.41;;;10.31;81.52
33161;BME280;19522;45.656;11.302;2023-03-31T05:47:12;98206.09;;;10.33;81.48
33161;BME280;19522;45.656;11.302;2023-03-31T05:49:38;98221.72;;;10.31;81.24
33161;BME280;19522;45.656;11.302;2023-03-31T05:52:05;98206.09;;;10.33;81.01
33161;BME280;19522;45.656;11.302;2023-03-31T05:54:31;98197.53;;;10.36;80.30
33161;BME280;19522;45.656;11.302;2023-03-31T05:56:57;98213.56;;;10.46;80.40
33161;BME280;19522;45.656;11.302;2023-03-31T05:59:25;98203.16;;;10.49;79.63
33161;BME280;19522;45.656;11.302;2023-03-31T06:01:50;98204.44;;;10.53;79.55
33161;BME280;19522;45.656;11.302;2023-03-31T06:04:16;98190.59;;;10.48;79.13
33161;BME280;19522;45.656;11.302;2023-03-31T06:06:42;98183.69;;;10.46;79.04
33161;BME280;19522;45.656;11.302;2023-03-31T06:09:08;98189.56;;;10.49;79.25
33161;BME280;19522;45.656;11.302;2023-03-31T06:11:36;98206.38;;;10.59;79.61
33161;BME280;19522;45.656;11.302;2023-03-31T06:14:02;98204.38;;;10.47;80.80
33161;BME280;19522;45.656;11.302;2023-03-31T06:16:28;98176.78;;;10.43;80.82
33161;BME280;19522;45.656;11.302;2023-03-31T06:18:53;98150.78;;;10.34;80.50
33161;BME280;19522;45.656;11.302;2023-03-31T06:21:20;98181.88;;;10.53;80.89
33161;BME280;19522;45.656;11.302;2023-03-31T06:23:46;98171.31;;;10.65;80.24
33161;BME280;19522;45.656;11.302;2023-03-31T06:26:16;98158.91;;;10.55;80.76
33161;BME280;19522;45.656;11.302;2023-03-31T06:28:42;98162.94;;;10.59;80.44
33161;BME280;19522;45.656;11.302;2023-03-31T06:31:13;98165.50;;;10.68;80.10
33161;BME280;19522;45.656;11.302;2023-03-31T06:33:41;98156.66;;;10.59;80.20
33161;BME280;19522;45.656;11.302;2023-03-31T06:36:07;98150.19;;;10.60;80.29
33161;BME280;19522;45.656;11.302;2023-03-31T06:38:34;98162.59;;;10.69;80.23
33161;BME280;19522;45.656;11.302;2023-03-31T06:41:00;98158.81;;;10.42;81.47
33161;BME280;19522;45.656;11.302;2023-03-31T06:43:26;98145.97;;;10.36;81.25
33161;BME280;19522;45.656;11.302;2023-03-31T06:45:52;98162.09;;;10.59;81.07
33161;BME280;19522;45.656;11.302;2023-03-31T06:48:17;98158.59;;;10.65;80.29
33161;BME280;19522;45.656;11.302;2023-03-31T06:50:43;98098.16;;;10.35;79.90
33161;BME280;19522;45.656;11.302;2023-03-31T06:53:09;98141.94;;;10.75;79.41
33161;BME280;19522;45.656;11.302;2023-03-31T06:55:36;98160.00;;;10.83;78.93
33161;BME280;19522;45.656;11.302;2023-03-31T06:58:02;98162.13;;;10.87;78.63
33161;BME280;19522;45.656;11.302;2023-03-31T07:00:28;98136.78;;;10.80;78.37
33161;BME280;19522;45.656;11.302;2023-03-31T07:02:54;98148.31;;;10.89;78.69
33161;BME280;19522;45.656;11.302;2023-03-31T07:05:20;98155.38;;;10.83;79.04
33161;BME280;19522;45.656;11.302;2023-03-31T07:07:56;98156.41;;;10.82;79.74
33161;BME280;19522;45.656;11.302;2023-03-31T07:10:22;98150.38;;;10.80;80.14
33161;BME280;19522;45.656;11.302;2023-03-31T07:12:48;98139.88;;;10.77;80.17
33161;BME280;19522;45.656;11.302;2023-03-31T07:15:15;98129.03;;;10.77;80.39
33161;BME280;19522;45.656;11.302;2023-03-31T07:17:40;98148.97;;;10.91;80.20
33161;BME280;19522;45.656;11.302;2023-03-31T07:20:11;98130.34;;;10.88;79.60
33161;BME280;19522;45.656;11.302;2023-03-31T07:22:37;98129.75;;;10.93;79.17
33161;BME280;19522;45.656;11.302;2023-03-31T07:25:03;98130.44;;;11.01;79.03
33161;BME280;19522;45.656;11.302;2023-03-31T07:27:29;98131.84;;;10.90;79.18
33161;BME280;19522;45.656;11.302;2023-03-31T07:29:54;98143.38;;;10.99;79.15
33161;BME280;19522;45.656;11.302;2023-03-31T07:32:20;98136.25;;;10.98;79.34
33161;BME280;19522;45.656;11.302;2023-03-31T07:34:47;98102.50;;;10.79;79.70
33161;BME280;19522;45.656;11.302;2023-03-31T07:37:13;98123.72;;;10.97;79.82
33161;BME280;19522;45.656;11.302;2023-03-31T07:39:38;98125.00;;;11.01;79.62
33161;BME280;19522;45.656;11.302;2023-03-31T07:42:04;98110.81;;;11.06;79.33
33161;BME280;19522;45.656;11.302;2023-03-31T07:44:35;98102.47;;;11.07;79.13
33161;BME280;19522;45.656;11.302;2023-03-31T07:47:01;98096.41;;;11.05;78.81
33161;BME280;19522;45.656;11.302;2023-03-31T07:49:32;98110.66;;;11.14;79.39
33161;BME280;19522;45.656;11.302;2023-03-31T07:51:58;98082.94;;;10.90;80.16
33161;BME280;19522;45.656;11.302;2023-03-31T07:54:24;98114.56;;;11.05;80.47
33161;BME280;19522;45.656;11.302;2023-03-31T07:56:50;98106.53;;;10.90;81.50
33161;BME280;19522;45.656;11.302;2023-03-31T07:59:16;98117.91;;;11.00;81.55
33161;BME280;19522;45.656;11.302;2023-03-31T08:01:42;98127.53;;;11.03;81.87
33161;BME280;19522;45.656;11.302;2023-03-31T08:04:08;98065.84;;;10.68;81.48
33161;BME280;19522;45.656;11.302;2023-03-31T08:06:34;98121.69;;;11.06;81.62
33161;BME280;19522;45.656;11.302;2023-03-31T08:09:00;98116.75;;;11.16;81.96
33161;BME280;19522;45.656;11.302;2023-03-31T08:11:25;98110.94;;;10.91;83.47
33161;BME280;19522;45.656;11.302;2023-03-31T08:13:51;98108.22;;;10.91;84.33
33161;BME280;19522;45.656;11.302;2023-03-31T08:16:17;98112.56;;;10.85;85.28
33161;BME280;19522;45.656;11.302;2023-03-31T08:18:42;98110.34;;;10.96;85.00
33161;BME280;19522;45.656;11.302;2023-03-31T08:21:08;98122.88;;;10.97;84.98
33161;BME280;19522;45.656;11.302;2023-03-31T08:23:34;98122.50;;;11.00;84.77
33161;BME280;19522;45.656;11.302;2023-03-31T08:26:14;98114.03;;;10.88;84.82
33161;BME280;19522;45.656;11.302;2023-03-31T08:28:42;98086.09;;;10.94;84.62
33161;BME280;19522;45.656;11.302;2023-03-31T08:31:08;98104.78;;;11.11;83.84
33161;BME280;19522;45.656;11.302;2023-03-31T08:33:35;98088.34;;;10.84;84.64
33161;BME280;19522;45.656;11.302;2023-03-31T08:36:03;98102.69;;;11.06;84.16
33161;BME280;19522;45.656;11.302;2023-03-31T08:38:30;98098.38;;;10.90;84.73
33161;BME280;19522;45.656;11.302;2023-03-31T08:41:04;98099.72;;;11.01;84.48
33161;BME280;19522;45.656;11.302;2023-03-31T08:43:33;98085.56;;;11.12;83.97
33161;BME280;19522;45.656;11.302;2023-03-31T08:46:03;98029.56;;;10.76;83.63
33161;BME280;19522;45.656;11.302;2023-03-31T08:48:39;98093.72;;;11.12;83.85
33161;BME280;19522;45.656;11.302;2023-03-31T08:51:21;98099.47;;;10.96;84.96
33161;BME280;19522;45.656;11.302;2023-03-31T08:53:56;98099.88;;;10.93;85.95
33161;BME280;19522;45.656;11.302;2023-03-31T08:56:25;98090.28;;;10.97;86.45
33161;BME280;19522;45.656;11.302;2023-03-31T08:58:52;98069.38;;;10.97;86.12
33161;BME280;19522;45.656;11.302;2023-03-31T09:17:56;98046.94;;;11.23;84.99
33161;BME280;19522;45.656;11.302;2023-03-31T09:20:33;98057.84;;;11.30;85.19
33161;BME280;19522;45.656;11.302;2023-03-31T09:23:13;98061.63;;;11.36;85.23
33161;BME280;19522;45.656;11.302;2023-03-31T09:25:45;98057.03;;;11.30;85.63
33161;BME280;19522;45.656;11.302;2023-03-31T09:28:31;98064.53;;;11.28;85.44
33161;BME280;19522;45.656;11.302;2023-03-31T09:30:59;98058.28;;;11.34;85.55
33161;BME280;19522;45.656;11.302;2023-03-31T09:33:30;98034.47;;;11.43;84.74
33161;BME280;19522;45.656;11.302;2023-03-31T09:36:02;98032.31;;;11.25;85.45
33161;BME280;19522;45.656;11.302;2023-03-31T09:38:32;98007.59;;;10.71;86.90
33161;BME280;19522;45.656;11.302;2023-03-31T09:41:02;98038.03;;;10.95;86.67
33161;BME280;19522;45.656;11.302;2023-03-31T09:43:30;98042.50;;;11.09;86.50
33161;BME280;19522;45.656;11.302;2023-03-31T09:45:59;98027.69;;;11.18;85.72
33161;BME280;19522;45.656;11.302;2023-03-31T09:48:28;98027.72;;;11.25;85.44
33161;BME280;19522;45.656;11.302;2023-03-31T09:51:04;98026.44;;;11.21;85.93
33161;BME280;19522;45.656;11.302;2023-03-31T09:53:46;98003.88;;;11.27;85.41
33161;BME280;19522;45.656;11.302;2023-03-31T09:56:31;98006.41;;;11.29;85.38
33161;BME280;19522;45.656;11.302;2023-03-31T09:59:00;97990.81;;;10.96;85.81
33161;BME280;19522;45.656;11.302;2023-03-31T10:01:27;98009.47;;;11.12;85.80
33161;BME280;19522;45.656;11.302;2023-03-31T10:03:54;97993.59;;;11.09;86.45
33161;BME280;19522;45.656;11.302;2023-03-31T10:06:22;97992.16;;;11.20;86.37
33161;BME280;19522;45.656;11.302;2023-03-31T10:08:49;97980.88;;;11.23;85.95
33161;BME280;19522;45.656;11.302;2023-03-31T10:11:16;97977.94;;;11.25;86.15
33161;BME280;19522;45.656;11.302;2023-03-31T10:13:52;97972.50;;;11.25;86.11
33161;BME280;19522;45.656;11.302;2023-03-31T10:16:44;97962.50;;;11.32;85.61
33161;BME280;19522;45.656;11.302;2023-03-31T10:19:13;97965.47;;;11.44;85.31
33161;BME280;19522;45.656;11.302;2023-03-31T10:21:45;97962.72;;;11.30;85.30
33161;BME280;19522;45.656;11.302;2023-03-31T10:24:15;97962.94;;;11.29;85.67
33161;BME280;19522;45.656;11.302;2023-03-31T10:26:42;97942.16;;;11.14;85.49
33161;BME280;19522;45.656;11.302;2023-03-31T10:29:12;97951.34;;;11.13;85.67
33161;BME280;19522;45.656;11.302;2023-03-31T10:31:39;97938.00;;;11.12;86.12
33161;BME280;19522;45.656;11.302;2023-03-31T10:34:07;97962.72;;;11.30;86.27
33161;BME280;19522;45.656;11.302;2023-03-31T10:36:34;97962.09;;;11.35;86.32
33161;BME280;19522;45.656;11.302;2023-03-31T10:39:04;97958.19;;;10.96;87.36
33161;BME280;19522;45.656;11.302;2023-03-31T10:41:31;97940.66;;;10.91;88.21
33161;BME280;19522;45.656;11.302;2023-03-31T10:43:59;97952.81;;;11.09;87.77
33161;BME280;19522;45.656;11.302;2023-03-31T10:46:46;97940.69;;;11.12;87.02
33161;BME280;19522;45.656;11.302;2023-03-31T10:49:36;97954.94;;;11.27;86.62
33161;BME280;19522;45.656;11.302;2023-03-31T10:52:02;97949.94;;;11.31;86.39
33161;BME280;19522;45.656;11.302;2023-03-31T10:54:27;97949.94;;;11.31;85.78
33161;BME280;19522;45.656;11.302;2023-03-31T10:56:56;97920.22;;;11.22;85.53
33161;BME280;19522;45.656;11.302;2023-03-31T11:05:19;97925.09;;;11.47;85.06
33161;BME280;19522;45.656;11.302;2023-03-31T11:13:20;97897.31;;;11.59;84.74
33161;BME280;19522;45.656;11.302;2023-03-31T11:21:19;97873.66;;;11.73;84.39
33161;BME280;19522;45.656;11.302;2023-03-31T11:26:41;97860.84;;;11.93;83.55
33161;BME280;19522;45.656;11.302;2023-03-31T11:35:11;97845.16;;;11.95;83.12
33161;BME280;19522;45.656;11.302;2023-03-31T11:38:00;97828.84;;;12.02;82.96
33161;BME280;19522;45.656;11.302;2023-03-31T11:40:58;97815.88;;;12.04;82.96
33161;BME280;19522;45.656;11.302;2023-03-31T11:43:31;97790.13;;;12.00;83.04
33161;BME280;19522;45.656;11.302;2023-03-31T11:46:42;97793.00;;;12.19;82.50
33161;BME280;19522;45.656;11.302;2023-03-31T11:51:54;97782.13;;;12.19;81.87
33161;BME280;19522;45.656;11.302;2023-03-31T11:56:50;97753.97;;;12.38;80.73
33161;BME280;19522;45.656;11.302;2023-03-31T11:59:17;97750.97;;;12.53;80.60
33161;BME280;19522;45.656;11.302;2023-03-31T12:02:15;97756.81;;;12.57;80.18
33161;BME280;19522;45.656;11.302;2023-03-31T12:04:46;97735.53;;;12.40;80.57
33161;BME280;19522;45.656;11.302;2023-03-31T12:07:29;97740.53;;;12.50;80.80
33161;BME280;19522;45.656;11.302;2023-03-31T12:12:33;97733.53;;;12.61;80.46
33161;BME280;19522;45.656;11.302;2023-03-31T12:15:22;97704.78;;;12.65;79.50
33161;BME280;19522;45.656;11.302;2023-03-31T12:17:58;97698.34;;;12.59;79.27
33161;BME280;19522;45.656;11.302;2023-03-31T12:20:30;97722.72;;;12.80;78.68
33161;BME280;19522;45.656;11.302;2023-03-31T12:22:57;97717.91;;;12.82;78.75
33161;BME280;19522;45.656;11.302;2023-03-31T12:25:33;97714.13;;;12.83;79.04
33161;BME280;19522;45.656;11.302;2023-03-31T12:28:04;97695.31;;;12.42;79.91
33161;BME280;19522;45.656;11.302;2023-03-31T12:30:40;97700.00;;;12.60;79.89
33161;BME280;19522;45.656;11.302;2023-03-31T12:33:21;97696.63;;;12.65;79.74
33161;BME280;19522;45.656;11.302;2023-03-31T12:39:05;97695.09;;;12.76;78.93
33161;BME280;19522;45.656;11.302;2023-03-31T12:44:34;97690.47;;;12.76;79.42
33161;BME280;19522;45.656;11.302;2023-03-31T12:55:30;97659.44;;;12.77;79.88
33161;BME280;19522;45.656;11.302;2023-03-31T13:06:56;97654.28;;;12.37;82.97
33161;BME280;19522;45.656;11.302;2023-03-31T13:14:27;97639.66;;;12.63;81.54
33161;BME280;19522;45.656;11.302;2023-03-31T13:20:14;97623.31;;;12.89;80.83
33161;BME280;19522;45.656;11.302;2023-03-31T13:22:46;97603.19;;;12.90;80.47
33161;BME280;19522;45.656;11.302;2023-03-31T13:28:33;97598.50;;;12.97;79.79
33161;BME280;19522;45.656;11.302;2023-03-31T13:31:04;97588.56;;;13.03;79.50
33161;BME280;19522;45.656;11.302;2023-03-31T13:33:38;97576.56;;;13.11;79.04
33161;BME280;19522;45.656;11.302;2023-03-31T13:36:32;97570.72;;;13.07;78.88
33161;BME280;19522;45.656;11.302;2023-03-31T13:39:38;97572.78;;;13.12;79.14
33161;BME280;19522;45.656;11.302;2023-03-31T13:47:32;97545.34;;;13.25;78.46
33161;BME280;19522;45.656;11.302;2023-03-31T14:04:19;97521.13;;;13.17;78.27
33161;BME280;19522;45.656;11.302;2023-03-31T14:06:56;97452.47;;;12.71;77.89
33161;BME280;19522;45.656;11.302;2023-03-31T14:09:32;97507.44;;;13.05;78.29
33161;BME280;19522;45.656;11.302;2023-03-31T14:14:44;97480.31;;;12.91;78.33
33161;BME280;19522;45.656;11.302;2023-03-31T14:17:10;97489.41;;;13.04;78.19
33161;BME280;19522;45.656;11.302;2023-03-31T14:25:10;97490.47;;;13.03;78.11
33161;BME280;19522;45.656;11.302;2023-03-31T14:31:25;97478.50;;;13.04;77.72
33161;BME280;19522;45.656;11.302;2023-03-31T14:36:37;97472.75;;;12.93;78.40
33161;BME280;19522;45.656;11.302;2023-03-31T14:39:08;97472.38;;;12.90;78.42
33161;BME280;19522;45.656;11.302;2023-03-31T14:41:35;97473.69;;;12.87;78.46
33161;BME280;19522;45.656;11.302;2023-03-31T14:44:04;97440.38;;;12.85;78.13
33161;BME280;19522;45.656;11.302;2023-03-31T14:46:36;97445.88;;;12.78;80.25
33161;BME280;19522;45.656;11.302;2023-03-31T14:49:13;97436.97;;;12.53;81.31
33161;BME280;19522;45.656;11.302;2023-03-31T14:51:42;97432.41;;;12.46;79.89
33161;BME280;19522;45.656;11.302;2023-03-31T14:54:16;97418.63;;;12.41;80.98
33161;BME280;19522;45.656;11.302;2023-03-31T14:56:49;97424.00;;;12.29;81.11
33161;BME280;19522;45.656;11.302;2023-03-31T14:59:25;97361.66;;;11.77;82.62
33161;BME280;19522;45.656;11.302;2023-03-31T15:01:52;97401.53;;;12.15;82.30
33161;BME280;19522;45.656;11.302;2023-03-31T15:04:23;97428.97;;;12.32;81.75
33161;BME280;19522;45.656;11.302;2023-03-31T15:06:50;97430.66;;;12.34;81.43
33161;BME280;19522;45.656;11.302;2023-03-31T15:09:23;97406.22;;;12.27;81.66
33161;BME280;19522;45.656;11.302;2023-03-31T15:11:59;97422.72;;;12.51;81.16
33161;BME280;19522;45.656;11.302;2023-03-31T15:15:09;97415.94;;;12.60;80.91
33161;BME280;19522;45.656;11.302;2023-03-31T15:17:31;97414.44;;;12.64;80.43
33161;BME280;19522;45.656;11.302;2023-03-31T15:20:01;97404.72;;;12.31;81.29
33161;BME280;19522;45.656;11.302;2023-03-31T15:22:58;97402.44;;;12.28;81.98
33161;BME280;19522;45.656;11.302;2023-03-31T15:25:43;97400.94;;;12.51;81.36
33161;BME280;19522;45.656;11.302;2023-03-31T15:28:12;97368.50;;;12.30;81.42
33161;BME280;19522;45.656;11.302;2023-03-31T15:30:39;97386.34;;;12.26;82.08
33161;BME280;19522;45.656;11.302;2023-03-31T15:33:07;97368.88;;;12.15;82.66
33161;BME280;19522;45.656;11.302;2023-03-31T15:35:34;97377.56;;;12.43;81.78
33161;BME280;19522;45.656;11.302;2023-03-31T15:38:04;97390.13;;;12.62;80.81
33161;BME280;19522;45.656;11.302;2023-03-31T15:53:30;97388.56;;;11.60;85.11
33161;BME280;19522;45.656;11.302;2023-03-31T15:56:05;97384.56;;;11.63;85.74
33161;BME280;19522;45.656;11.302;2023-03-31T15:58:58;97385.25;;;11.83;84.87